createdAt,value
2018-11-14T00:00:26.606Z,1.68
2018-11-14T00:02:56.123Z,1.64
2018-11-14T00:05:25.391Z,1.55
2018-11-14T00:07:54.575Z,1.40
2018-11-14T00:10:23.781Z,1.30
2018-11-14T00:12:52.983Z,1.26
2018-11-14T00:15:23.372Z,1.26
2018-11-14T00:17:53.707Z,1.31
2018-11-14T00:20:22.903Z,1.30
2018-11-14T00:22:52.470Z,1.29
2018-11-14T00:25:21.671Z,1.34
2018-11-14T00:27:50.958Z,1.32
2018-11-14T00:30:23.586Z,1.35
2018-11-14T00:32:52.779Z,1.30
2018-11-14T00:35:22.048Z,1.38
2018-11-14T00:37:51.573Z,1.26
2018-11-14T00:40:21.230Z,1.21
2018-11-14T00:42:50.626Z,1.21
2018-11-14T00:45:21.045Z,1.16
2018-11-14T00:47:50.550Z,1.24
2018-11-14T00:50:20.159Z,1.13
2018-11-14T00:52:49.346Z,1.12
2018-11-14T00:55:19.777Z,1.08
2018-11-14T00:57:49.783Z,1.02
2018-11-14T01:00:21.283Z,0.99
2018-11-14T01:02:50.463Z,1.08
2018-11-14T01:05:19.826Z,0.87
2018-11-14T01:07:49.058Z,0.77
2018-11-14T01:10:20.320Z,0.63
2018-11-14T01:12:49.889Z,0.58
2018-11-14T01:15:21.388Z,0.57
2018-11-14T01:17:50.565Z,0.64
2018-11-14T01:20:20.911Z,0.74
2018-11-14T01:22:50.230Z,0.79
2018-11-14T01:25:19.613Z,0.76
2018-11-14T01:27:48.786Z,0.72
2018-11-14T01:30:20.246Z,0.67
2018-11-14T01:32:49.774Z,0.62
2018-11-14T01:35:19.234Z,0.63
2018-11-14T01:37:48.526Z,0.62
2018-11-14T01:40:22.007Z,0.58
2018-11-14T01:42:53.467Z,0.65
2018-11-14T01:45:22.795Z,0.68
2018-11-14T01:47:52.008Z,0.73
2018-11-14T01:50:21.170Z,0.74
2018-11-14T01:52:50.359Z,0.79
2018-11-14T01:55:20.557Z,0.74
2018-11-14T01:57:49.811Z,0.58
2018-11-14T02:00:20.718Z,0.51
2018-11-14T02:02:49.955Z,0.62
2018-11-14T02:05:19.654Z,0.49
2018-11-14T02:07:48.846Z,0.39
2018-11-14T02:10:19.852Z,0.38
2018-11-14T02:12:49.079Z,0.29
2018-11-14T02:15:19.695Z,0.23
2018-11-14T02:17:48.935Z,0.19
2018-11-14T02:20:18.112Z,0.23
2018-11-14T02:22:47.574Z,0.16
2018-11-14T02:25:17.110Z,0.03
2018-11-14T02:27:46.405Z,-0.01
2018-11-14T02:30:19.422Z,-0.08
2018-11-14T02:32:48.616Z,0.10
2018-11-14T02:35:17.830Z,-0.06
2018-11-14T02:37:47.810Z,-0.11
2018-11-14T02:40:17.693Z,-0.20
2018-11-14T02:42:46.923Z,-0.22
2018-11-14T02:45:16.335Z,-0.23
2018-11-14T02:47:45.544Z,-0.27
2018-11-14T02:50:16.037Z,-0.31
2018-11-14T02:52:45.241Z,-0.33
2018-11-14T02:55:15.476Z,-0.31
2018-11-14T02:57:46.066Z,-0.25
2018-11-14T03:00:19.011Z,-0.22
2018-11-14T03:02:48.238Z,-0.16
2018-11-14T03:05:17.443Z,-0.10
2018-11-14T03:07:46.634Z,-0.08
2018-11-14T03:10:18.505Z,0.11
2018-11-14T03:12:48.422Z,-0.11
2018-11-14T03:15:20.518Z,-0.16
2018-11-14T03:17:49.718Z,-0.29
2018-11-14T03:20:21.878Z,-0.33
2018-11-14T03:22:51.064Z,-0.28
2018-11-14T03:25:20.262Z,-0.13
2018-11-14T03:27:49.490Z,-0.27
2018-11-14T03:30:19.185Z,-0.28
2018-11-14T03:32:48.417Z,-0.27
2018-11-14T03:35:17.653Z,-0.25
2018-11-14T03:37:46.791Z,-0.25
2018-11-14T03:40:17.025Z,-0.28
2018-11-14T03:42:46.267Z,-0.23
2018-11-14T03:45:15.844Z,-0.25
2018-11-14T03:47:45.063Z,-0.30
2018-11-14T03:50:14.258Z,-0.30
2018-11-14T03:52:43.455Z,-0.30
2018-11-14T03:55:12.654Z,-0.27
2018-11-14T03:57:41.862Z,-0.25
2018-11-14T04:00:14.184Z,-0.27
2018-11-14T04:02:44.310Z,0.00
2018-11-14T04:05:13.498Z,-0.01
2018-11-14T04:07:43.060Z,-0.04
2018-11-14T04:10:13.251Z,-0.09
2018-11-14T04:12:42.755Z,-0.06
2018-11-14T04:15:12.947Z,-0.06
2018-11-14T04:17:42.151Z,-0.07
2018-11-14T04:20:13.470Z,-0.03
2018-11-14T04:22:42.783Z,0.10
2018-11-14T04:25:14.694Z,0.25
2018-11-14T04:27:44.821Z,0.36
2018-11-14T04:30:15.605Z,0.30
2018-11-14T04:32:44.990Z,0.32
2018-11-14T04:35:15.333Z,0.36
2018-11-14T04:37:44.543Z,0.47
2018-11-14T04:40:16.168Z,0.61
2018-11-14T04:42:45.350Z,0.74
2018-11-14T04:45:15.947Z,0.79
2018-11-14T04:47:45.219Z,0.93
2018-11-14T04:50:16.960Z,0.96
2018-11-14T04:52:46.879Z,1.04
2018-11-14T04:55:17.138Z,1.14
2018-11-14T04:57:46.537Z,1.21
2018-11-14T05:00:16.531Z,1.30
2018-11-14T05:02:46.271Z,1.39
2018-11-14T05:05:16.628Z,1.32
2018-11-14T05:07:45.835Z,1.29
2018-11-14T05:10:24.789Z,1.45
2018-11-14T05:12:54.108Z,1.65
2018-11-14T05:15:24.391Z,1.35
2018-11-14T05:17:53.999Z,1.19
2018-11-14T05:20:23.524Z,1.18
2018-11-14T05:22:52.896Z,1.13
2018-11-14T05:25:22.075Z,1.13
2018-11-14T05:27:51.265Z,1.06
2018-11-14T05:30:21.685Z,1.04
2018-11-14T05:32:51.352Z,1.11
2018-11-14T05:35:20.553Z,1.13
2018-11-14T05:37:49.972Z,1.26
2018-11-14T05:40:20.395Z,1.37
2018-11-14T05:42:50.035Z,1.39
2018-11-14T05:45:21.774Z,1.49
2018-11-14T05:47:50.966Z,1.54
2018-11-14T05:50:21.099Z,1.63
2018-11-14T05:52:50.334Z,1.68
2018-11-14T05:55:19.542Z,1.71
2018-11-14T05:57:49.270Z,1.73
2018-11-14T06:00:28.275Z,1.76
2018-11-14T06:02:58.191Z,2.10
2018-11-14T06:05:27.566Z,1.92
2018-11-14T06:07:56.849Z,1.71
2018-11-14T06:10:26.164Z,1.54
2018-11-14T06:12:55.375Z,1.76
2018-11-14T06:15:24.660Z,1.63
2018-11-14T06:17:55.230Z,1.77
2018-11-14T06:20:24.440Z,1.68
2018-11-14T06:22:54.068Z,1.65
2018-11-14T06:25:31.330Z,1.49
2018-11-14T06:28:01.499Z,1.42
2018-11-14T06:30:31.440Z,1.37
2018-11-14T06:33:01.277Z,1.29
2018-11-14T06:35:30.463Z,1.29
2018-11-14T06:37:59.694Z,1.29
2018-11-14T06:40:28.982Z,1.30
2018-11-14T06:42:58.206Z,1.32
2018-11-14T06:45:28.623Z,1.31
2018-11-14T06:47:58.950Z,1.45
2018-11-14T06:50:28.195Z,1.55
2018-11-14T06:52:58.766Z,1.62
2018-11-14T06:55:27.947Z,1.71
2018-11-14T06:57:57.136Z,1.78
2018-11-14T07:00:27.331Z,2.02
2018-11-14T07:02:57.055Z,2.43
2018-11-14T07:05:26.312Z,2.45
2018-11-14T07:07:55.419Z,2.32
2018-11-14T07:10:25.872Z,2.27
2018-11-14T07:12:59.123Z,2.30
2018-11-14T07:15:28.313Z,2.40
2018-11-14T07:17:57.531Z,2.62
2018-11-14T07:20:27.982Z,2.71
2018-11-14T07:22:57.175Z,2.83
2018-11-14T07:25:26.368Z,4.20
2018-11-14T07:27:55.562Z,7.02
2018-11-14T07:30:25.929Z,9.17
2018-11-14T07:32:57.323Z,10.26
2018-11-14T07:35:26.504Z,10.97
2018-11-14T07:39:00.375Z,12.08
2018-11-14T07:46:29.227Z,13.79
2018-11-14T07:48:58.513Z,14.20
2018-11-14T07:51:27.810Z,13.79
2018-11-14T07:53:57.118Z,13.56
2018-11-14T07:56:26.487Z,14.12
2018-11-14T07:58:55.723Z,14.71
2018-11-14T08:01:24.952Z,15.20
2018-11-14T08:03:54.138Z,15.46
2018-11-14T08:06:23.314Z,15.56
2018-11-14T08:08:52.505Z,16.41
2018-11-14T08:11:21.707Z,16.34
2018-11-14T08:13:50.888Z,16.94
2018-11-14T08:16:20.091Z,16.48
2018-11-14T08:18:49.565Z,16.63
2018-11-14T08:21:18.746Z,16.57
2018-11-14T08:23:47.987Z,16.65
2018-11-14T08:26:17.172Z,17.11
2018-11-14T08:28:46.378Z,17.27
2018-11-14T08:31:15.559Z,17.54
2018-11-14T08:33:44.741Z,17.65
2018-11-14T08:36:13.925Z,17.46
2018-11-14T08:38:43.139Z,17.38
2018-11-14T08:41:12.343Z,17.13
2018-11-14T08:43:41.531Z,17.21
2018-11-14T08:46:10.708Z,16.90
2018-11-14T08:48:39.902Z,17.14
2018-11-14T08:51:09.109Z,16.60
2018-11-14T08:53:38.303Z,16.13
2018-11-14T08:56:07.482Z,14.72
2018-11-14T08:58:36.687Z,13.89
2018-11-14T09:01:05.981Z,13.17
2018-11-14T09:03:35.156Z,13.05
2018-11-14T09:06:04.371Z,13.64
2018-11-14T09:08:33.567Z,14.03
2018-11-14T09:11:02.837Z,12.90
2018-11-14T09:13:31.949Z,12.89
2018-11-14T09:16:01.133Z,13.57
2018-11-14T09:18:30.343Z,13.23
2018-11-14T09:20:59.535Z,13.02
2018-11-14T09:23:28.722Z,14.63
2018-11-14T09:25:57.922Z,14.30
2018-11-14T09:28:27.107Z,13.84
2018-11-14T09:30:56.299Z,15.18
2018-11-14T09:33:25.482Z,14.22
2018-11-14T09:35:54.675Z,15.52
2018-11-14T09:38:23.982Z,15.78
2018-11-14T09:40:53.245Z,16.66
2018-11-14T09:43:22.374Z,15.18
2018-11-14T09:45:51.566Z,15.05
2018-11-14T09:48:20.743Z,14.40
2018-11-14T09:50:49.957Z,13.80
2018-11-14T09:53:19.233Z,13.56
2018-11-14T09:55:48.330Z,12.69
2018-11-14T09:58:17.501Z,13.14
2018-11-14T10:00:46.754Z,12.81
2018-11-14T10:03:17.639Z,12.54
2018-11-14T10:05:46.884Z,13.58
2018-11-14T10:08:16.063Z,12.94
2018-11-14T10:10:45.267Z,13.38
2018-11-14T10:13:14.440Z,13.01
2018-11-14T10:15:43.739Z,13.03
2018-11-14T10:18:12.826Z,13.86
2018-11-14T10:20:42.028Z,14.02
2018-11-14T10:23:11.262Z,13.79
2018-11-14T10:25:40.455Z,14.07
2018-11-14T10:28:09.634Z,16.25
2018-11-14T10:30:38.821Z,15.40
2018-11-14T10:33:07.991Z,16.74
2018-11-14T10:35:37.189Z,17.70
2018-11-14T10:38:06.495Z,18.89
2018-11-14T10:40:35.680Z,18.47
2018-11-14T10:43:05.054Z,18.99
2018-11-14T10:45:34.147Z,17.99
2018-11-14T10:48:03.341Z,19.11
2018-11-14T10:50:32.526Z,17.20
2018-11-14T10:53:01.730Z,17.99
2018-11-14T10:55:30.920Z,17.34
2018-11-14T10:58:00.123Z,16.56
2018-11-14T11:00:34.551Z,15.53
2018-11-14T11:03:08.913Z,15.88
2018-11-14T11:05:44.006Z,15.93
2018-11-14T11:08:20.120Z,16.53
2018-11-14T11:10:54.902Z,15.53
2018-11-14T11:13:29.207Z,15.59
2018-11-14T11:16:03.533Z,15.47
2018-11-14T11:18:34.027Z,16.34
2018-11-14T11:21:03.307Z,18.25
2018-11-14T11:23:32.568Z,18.03
2018-11-14T11:26:01.690Z,17.20
2018-11-14T11:28:30.909Z,18.33
2018-11-14T11:31:00.099Z,17.28
2018-11-14T11:33:29.291Z,18.86
2018-11-14T11:35:58.466Z,18.66
2018-11-14T11:38:27.663Z,17.20
2018-11-14T11:40:56.871Z,15.93
2018-11-14T11:43:26.066Z,16.37
2018-11-14T11:46:01.584Z,17.10
2018-11-14T11:48:30.795Z,16.29
2018-11-14T11:51:00.044Z,16.20
2018-11-14T11:53:29.172Z,15.93
2018-11-14T11:55:58.346Z,16.94
2018-11-14T11:58:27.536Z,15.60
2018-11-14T12:00:56.768Z,15.32
2018-11-14T12:03:25.962Z,16.58
2018-11-14T12:05:55.168Z,17.51
2018-11-14T12:08:24.322Z,16.49
2018-11-14T12:10:53.626Z,15.93
2018-11-14T12:13:22.760Z,17.10
2018-11-14T12:15:51.912Z,15.21
2018-11-14T12:18:21.104Z,16.19
2018-11-14T12:20:50.314Z,16.22
2018-11-14T12:23:19.534Z,19.76
2018-11-14T12:25:48.762Z,15.67
2018-11-14T12:28:17.990Z,15.28
2018-11-14T12:30:47.448Z,15.28
2018-11-14T12:33:16.570Z,16.19
2018-11-14T12:35:45.864Z,16.24
2018-11-14T12:38:14.966Z,15.08
2018-11-14T12:40:44.179Z,15.45
2018-11-14T12:43:13.379Z,16.18
2018-11-14T12:45:42.597Z,16.83
2018-11-14T12:48:11.787Z,16.06
2018-11-14T12:50:41.002Z,15.64
2018-11-14T12:53:10.210Z,14.75
2018-11-14T12:55:39.417Z,13.66
2018-11-14T12:58:08.626Z,14.03
2018-11-14T13:00:37.843Z,15.75
2018-11-14T13:03:07.150Z,13.38
2018-11-14T13:05:36.351Z,13.12
2018-11-14T13:08:05.543Z,12.77
2018-11-14T13:10:34.755Z,13.11
2018-11-14T13:13:03.958Z,13.06
2018-11-14T13:15:33.151Z,12.94
2018-11-14T13:18:02.346Z,13.31
2018-11-14T13:20:31.534Z,13.08
2018-11-14T13:23:00.775Z,12.57
2018-11-14T13:25:29.997Z,12.44
2018-11-14T13:27:59.302Z,11.78
2018-11-14T13:30:28.429Z,11.89
2018-11-14T13:32:57.678Z,13.08
2018-11-14T13:35:27.055Z,12.37
2018-11-14T13:38:01.807Z,11.83
2018-11-14T13:40:31.004Z,11.71
2018-11-14T13:43:31.517Z,11.34
2018-11-14T13:46:00.708Z,10.81
2018-11-14T13:48:29.929Z,10.44
2018-11-14T13:50:59.256Z,10.58
2018-11-14T13:53:28.359Z,10.92
2018-11-14T13:55:57.630Z,11.04
2018-11-14T13:58:26.867Z,10.20
2018-11-14T14:00:56.062Z,9.69
2018-11-14T14:03:25.267Z,9.75
2018-11-14T14:05:54.446Z,9.71
2018-11-14T14:08:23.659Z,9.64
2018-11-14T14:10:52.888Z,10.12
2018-11-14T14:13:22.124Z,9.99
2018-11-14T14:15:51.295Z,9.64
2018-11-14T14:18:20.499Z,9.69
2018-11-14T14:20:49.739Z,9.72
2018-11-14T14:23:18.947Z,10.25
2018-11-14T14:25:48.139Z,10.42
2018-11-14T14:28:17.330Z,10.08
2018-11-14T14:30:46.571Z,9.41
2018-11-14T14:33:15.718Z,9.55
2018-11-14T14:35:44.910Z,9.44
2018-11-14T14:38:14.231Z,8.18
2018-11-14T14:40:43.387Z,8.06
2018-11-14T14:43:12.579Z,8.35
2018-11-14T14:45:41.763Z,8.62
2018-11-14T14:48:10.963Z,8.41
2018-11-14T14:50:40.128Z,8.20
2018-11-14T14:53:09.307Z,7.79
2018-11-14T14:55:38.507Z,7.81
2018-11-14T14:58:07.728Z,7.80
2018-11-14T15:00:36.904Z,7.47
2018-11-14T15:03:06.143Z,7.47
2018-11-14T15:05:35.355Z,7.47
2018-11-14T15:08:04.722Z,7.51
2018-11-14T15:10:33.919Z,7.35
2018-11-14T15:13:03.144Z,7.37
2018-11-14T15:15:32.353Z,7.19
2018-11-14T15:18:01.510Z,7.23
2018-11-14T15:20:30.700Z,7.56
2018-11-14T15:22:59.900Z,7.27
2018-11-14T15:25:29.111Z,7.23
2018-11-14T15:27:58.311Z,7.19
2018-11-14T15:30:29.420Z,7.03
2018-11-14T15:32:58.615Z,6.73
2018-11-14T15:35:27.799Z,6.72
2018-11-14T15:37:56.999Z,7.29
2018-11-14T15:40:27.047Z,7.39
2018-11-14T15:42:57.292Z,7.07
2018-11-14T15:45:29.424Z,7.02
2018-11-14T15:47:58.674Z,7.07
2018-11-14T15:50:29.054Z,6.55
2018-11-14T15:52:58.820Z,6.95
2018-11-14T15:55:28.026Z,6.98
2018-11-14T15:57:57.449Z,6.53
2018-11-14T16:00:27.831Z,6.48
2018-11-14T16:02:57.093Z,6.51
2018-11-14T16:05:27.287Z,6.49
2018-11-14T16:07:57.683Z,6.50
2018-11-14T16:10:27.687Z,6.49
2018-11-14T16:12:56.895Z,6.59
2018-11-14T16:15:27.447Z,6.57
2018-11-14T16:17:56.657Z,6.45
2018-11-14T16:20:26.630Z,6.44
2018-11-14T16:22:55.824Z,6.43
2018-11-14T16:25:25.720Z,6.39
2018-11-14T16:27:56.154Z,6.41
2018-11-14T16:30:26.542Z,6.39
2018-11-14T16:32:57.008Z,6.36
2018-11-14T16:35:26.224Z,6.38
2018-11-14T16:37:55.476Z,6.40
2018-11-14T16:40:25.936Z,6.35
2018-11-14T16:42:56.114Z,6.40
2018-11-14T16:45:25.319Z,6.48
2018-11-14T16:47:55.042Z,6.44
2018-11-14T16:50:24.647Z,6.41
2018-11-14T16:52:53.837Z,6.35
2018-11-14T16:55:23.426Z,6.66
2018-11-14T16:57:53.639Z,6.53
2018-11-14T17:00:30.498Z,6.70
2018-11-14T17:02:59.787Z,6.87
2018-11-14T17:05:29.986Z,6.49
2018-11-14T17:07:59.178Z,6.41
2018-11-14T17:10:28.395Z,6.45
2018-11-14T17:12:58.873Z,6.80
2018-11-14T17:15:28.393Z,6.49
2018-11-14T17:17:57.610Z,6.38
2018-11-14T17:20:26.850Z,6.46
2018-11-14T17:22:56.382Z,6.93
2018-11-14T17:25:25.577Z,6.67
2018-11-14T17:27:54.764Z,6.41
2018-11-14T17:30:25.115Z,6.74
2018-11-14T17:32:54.543Z,6.91
2018-11-14T17:35:23.760Z,6.98
2018-11-14T17:37:52.964Z,7.02
2018-11-14T17:40:26.076Z,6.99
2018-11-14T17:42:56.467Z,6.87
2018-11-14T17:45:27.120Z,6.94
2018-11-14T17:47:56.624Z,6.98
2018-11-14T17:50:28.538Z,7.04
2018-11-14T17:52:58.374Z,6.89
2018-11-14T17:55:27.656Z,7.10
2018-11-14T17:57:56.848Z,7.01
2018-11-14T18:00:27.316Z,6.95
2018-11-14T18:02:56.524Z,6.82
2018-11-14T18:05:26.980Z,6.46
2018-11-14T18:07:56.339Z,6.46
2018-11-14T18:10:26.636Z,6.46
2018-11-14T18:12:56.924Z,6.44
2018-11-14T18:15:26.151Z,6.50
2018-11-14T18:17:55.957Z,6.41
2018-11-14T18:20:26.638Z,6.45
2018-11-14T18:22:56.087Z,6.48
2018-11-14T18:25:25.336Z,6.46
2018-11-14T18:27:54.518Z,6.48
2018-11-14T18:30:24.940Z,6.38
2018-11-14T18:32:54.963Z,6.31
2018-11-14T18:35:24.703Z,6.51
2018-11-14T18:37:54.734Z,6.52
2018-11-14T18:40:25.243Z,6.41
2018-11-14T18:42:54.468Z,6.48
2018-11-14T18:45:26.214Z,6.38
2018-11-14T18:47:56.190Z,6.40
2018-11-14T18:50:26.896Z,6.39
2018-11-14T18:52:56.144Z,6.36
2018-11-14T18:55:26.731Z,6.39
2018-11-14T18:57:56.333Z,6.37
2018-11-14T19:00:30.399Z,6.33
2018-11-14T19:02:59.844Z,6.33
2018-11-14T19:05:30.299Z,6.34
2018-11-14T19:07:59.476Z,6.74
2018-11-14T19:10:30.099Z,6.68
2018-11-14T19:12:59.339Z,6.69
2018-11-14T19:15:29.972Z,6.43
2018-11-14T19:17:59.204Z,6.35
2018-11-14T19:20:29.586Z,6.38
2018-11-14T19:22:59.607Z,6.33
2018-11-14T19:25:30.016Z,6.36
2018-11-14T19:27:59.416Z,6.46
2018-11-14T19:30:29.855Z,6.15
2018-11-14T19:32:59.749Z,6.13
2018-11-14T19:35:28.961Z,6.16
2018-11-14T19:37:58.559Z,6.21
2018-11-14T19:40:29.204Z,6.41
2018-11-14T19:43:00.910Z,6.42
2018-11-14T19:45:31.652Z,6.17
2018-11-14T19:48:00.880Z,6.20
2018-11-14T19:50:30.147Z,6.14
2018-11-14T19:52:59.299Z,6.16
2018-11-14T19:55:28.888Z,6.18
2018-11-14T19:57:59.334Z,6.23
2018-11-14T20:00:32.690Z,6.55
2018-11-14T20:03:02.841Z,6.41
2018-11-14T20:05:32.027Z,6.37
2018-11-14T20:08:01.252Z,6.29
2018-11-14T20:10:31.888Z,6.19
2018-11-14T20:13:01.097Z,6.17
2018-11-14T20:15:31.754Z,6.06
2018-11-14T20:18:00.982Z,6.04
2018-11-14T20:20:32.507Z,5.95
2018-11-14T20:23:01.779Z,5.97
2018-11-14T20:25:31.087Z,6.01
2018-11-14T20:28:00.299Z,6.02
2018-11-14T20:30:32.042Z,5.99
2018-11-14T20:33:03.885Z,6.04
2018-11-14T20:35:33.062Z,6.06
2018-11-14T20:38:02.290Z,6.07
2018-11-14T20:40:31.519Z,6.14
2018-11-14T20:43:00.802Z,6.09
2018-11-14T20:45:31.685Z,6.11
2018-11-14T20:48:00.916Z,6.05
2018-11-14T20:50:30.710Z,6.40
2018-11-14T20:53:02.157Z,6.71
2018-11-14T20:55:32.152Z,6.26
2018-11-14T20:58:01.567Z,6.24
2018-11-14T21:00:31.883Z,6.12
2018-11-14T21:03:01.420Z,6.02
2018-11-14T21:05:30.891Z,6.03
2018-11-14T21:08:00.182Z,5.96
2018-11-14T21:10:30.767Z,5.94
2018-11-14T21:13:00.556Z,5.92
2018-11-14T21:15:31.250Z,5.93
2018-11-14T21:18:01.391Z,6.18
2018-11-14T21:20:30.583Z,6.27
2018-11-14T21:22:59.862Z,6.34
2018-11-14T21:25:29.182Z,6.52
2018-11-14T21:27:58.552Z,6.48
2018-11-14T21:30:35.559Z,6.58
2018-11-14T21:33:04.765Z,6.40
2018-11-14T21:35:35.444Z,6.19
2018-11-14T21:38:05.944Z,6.24
2018-11-14T21:40:35.123Z,6.22
2018-11-14T21:43:04.346Z,6.38
2018-11-14T21:45:33.832Z,6.33
2018-11-14T21:48:08.255Z,6.18
2018-11-14T21:50:37.454Z,6.36
2018-11-14T21:53:06.760Z,6.47
2018-11-14T21:55:35.916Z,6.42
2018-11-14T21:58:05.175Z,6.18
2018-11-14T22:00:35.695Z,6.34
2018-11-14T22:03:05.251Z,6.07
2018-11-14T22:05:34.840Z,6.27
2018-11-14T22:08:04.080Z,6.03
2018-11-14T22:10:33.362Z,5.82
2018-11-14T22:13:03.619Z,5.79
2018-11-14T22:15:32.978Z,5.77
2018-11-14T22:18:02.202Z,5.74
2018-11-14T22:20:31.491Z,5.76
2018-11-14T22:23:00.674Z,6.00
2018-11-14T22:25:30.388Z,6.10
2018-11-14T22:27:59.660Z,6.16
2018-11-14T22:30:30.031Z,6.18
2018-11-14T22:32:59.220Z,5.97
2018-11-14T22:35:29.676Z,5.98
2018-11-14T22:37:58.754Z,6.31
2018-11-14T22:40:30.107Z,6.27
2018-11-14T22:42:59.299Z,6.28
2018-11-14T22:45:29.920Z,6.31
2018-11-14T22:47:59.109Z,6.03
2018-11-14T22:50:28.405Z,6.17
2018-11-14T22:52:57.594Z,6.08
2018-11-14T22:55:27.090Z,6.14
2018-11-14T22:57:56.343Z,6.02
2018-11-14T23:00:27.553Z,6.03
2018-11-14T23:02:57.932Z,5.78
2018-11-14T23:05:27.271Z,5.68
2018-11-14T23:07:57.003Z,5.55
2018-11-14T23:10:26.563Z,5.65
2018-11-14T23:12:55.763Z,5.49
2018-11-14T23:15:25.233Z,5.71
2018-11-14T23:17:54.413Z,5.78
2018-11-14T23:20:23.607Z,5.78
2018-11-14T23:22:53.368Z,5.91
2018-11-14T23:25:22.982Z,6.18
2018-11-14T23:27:53.267Z,6.17
2018-11-14T23:30:24.092Z,6.18
2018-11-14T23:32:54.067Z,5.83
2018-11-14T23:35:27.424Z,6.02
2018-11-14T23:37:58.830Z,5.82
2018-11-14T23:40:28.229Z,5.76
2018-11-14T23:42:57.470Z,5.80
2018-11-14T23:45:27.314Z,5.67
2018-11-14T23:47:56.518Z,5.49
2018-11-14T23:50:27.899Z,5.37
2018-11-14T23:52:57.946Z,5.33
2018-11-14T23:55:27.900Z,5.74
2018-11-14T23:57:57.271Z,5.91
